SILO ALERT LOG


Silo ID Alert Type Alert Message Silo Type Points Depth (mm) Strength Temperature (°C) Humidity (%) Height (mm) Volume (㎥) Weight (t) Flag Time
WJWJR05 Humidity 습도센서 측정값이 80% 초과 56 7610 2489 27.4 81 109 12.441 7.865 0 2026-08-08 05:25:44.000
WJWJR05 Humidity 습도센서 측정값이 80% 초과 57 8000 2500 28.3 86.6 -280 -31.667 0 0 2026-08-07 09:25:43.000
WJWJR01 Humidity 습도센서 측정값이 80% 초과 77 7670 1072 26.6 85.5 -30 -3.393 0 0 2026-08-07 05:26:03.000
WJWJR05 Humidity 습도센서 측정값이 80% 초과 55 7740 2465 27 82.5 -20 -2.262 0 0 2026-08-07 05:25:48.000
WJWJR01 Humidity 습도센서 측정값이 80% 초과 76 7700 1060 28.4 80.7 -60 -6.786 0 0 2026-08-07 01:26:05.000
WJWJR05 Humidity 습도센서 측정값이 80% 초과 59 8000 2454 27.5 86.1 -280 -31.667 0 0 2026-08-06 09:25:40.000
WJWJR01 Humidity 습도센서 측정값이 80% 초과 76 7670 1042 26 86.7 -30 -3.393 0 0 2026-08-06 05:26:04.000
WJWJR05 Humidity 습도센서 측정값이 80% 초과 56 7760 2457 26.5 83.6 -40 -4.524 0 0 2026-08-06 05:25:46.000
WJWJR01 Humidity 습도센서 측정값이 80% 초과 76 7660 1057 27.9 82.9 -20 -2.262 0 0 2026-08-06 01:26:02.000
WJWJR01 Humidity 습도센서 측정값이 80% 초과 75 7710 1038 29.2 82.4 -70 -7.917 0 0 2026-08-05 09:26:00.000
WJWJR05 Humidity 습도센서 측정값이 80% 초과 55 7740 2503 27.9 89.2 -20 -2.262 0 0 2026-08-05 09:25:46.000
WJWJR01 Humidity 습도센서 측정값이 80% 초과 74 7710 1103 26.2 88.9 -70 -7.917 0 0 2026-08-05 05:26:03.000
WJWJR05 Humidity 습도센서 측정값이 80% 초과 48 7830 2477 26.5 86 -110 -12.441 0 0 2026-08-05 05:25:42.000
WJWJR01 Humidity 습도센서 측정값이 80% 초과 75 7730 1096 27.4 86 -90 -10.179 0 0 2026-08-05 01:25:57.000
WJWJR05 Humidity 습도센서 측정값이 80% 초과 59 7780 2490 27.9 82.5 -60 -6.786 0 0 2026-08-05 01:25:47.000
WJWJR05 Humidity 습도센서 측정값이 80% 초과 45 7890 2462 28.8 84.4 -169 -19.227 0 0 2026-08-04 09:25:45.000
WJWJR01 Humidity 습도센서 측정값이 80% 초과 76 7670 1047 27.1 84.6 -30 -3.393 0 0 2026-08-04 05:26:08.000
WJWJR05 Humidity 습도센서 측정값이 80% 초과 46 7770 2473 27.5 81.9 -49 -5.655 0 0 2026-08-04 05:25:47.000
WJWJR01 Humidity 습도센서 측정값이 80% 초과 76 7660 1055 29 81 -20 -2.262 0 0 2026-08-04 01:26:01.000
WJWJR01 Humidity 습도센서 측정값이 80% 초과 77 7680 1055 28.3 84.2 -40 -4.524 0 0 2026-08-03 09:26:00.000

[첫 페이지] [8] [9] [10] [11] 12 [13] [14] [15] [16] [마지막 페이지]